sensor_id;sensor_type;location;lat;lon;timestamp;pressure;altitude;pressure_sealevel;temperature;humidity
56821;BME280;42702;50.178;20.992;2022-10-31T00:01:33;99675.30;;;12.49;76.63
56821;BME280;42702;50.178;20.992;2022-10-31T00:04:03;99675.10;;;12.50;76.61
56821;BME280;42702;50.178;20.992;2022-10-31T00:06:31;99673.17;;;12.51;76.67
56821;BME280;42702;50.178;20.992;2022-10-31T00:09:01;99675.42;;;12.55;76.41
56821;BME280;42702;50.178;20.992;2022-10-31T00:11:30;99674.89;;;12.55;76.59
56821;BME280;42702;50.178;20.992;2022-10-31T00:13:59;99671.57;;;12.55;76.36
56821;BME280;42702;50.178;20.992;2022-10-31T00:16:28;99670.35;;;12.55;76.50
56821;BME280;42702;50.178;20.992;2022-10-31T00:18:59;99669.30;;;12.53;76.61
56821;BME280;42702;50.178;20.992;2022-10-31T00:21:29;99668.64;;;12.48;76.36
56821;BME280;42702;50.178;20.992;2022-10-31T00:23:58;99671.14;;;12.42;76.27
56821;BME280;42702;50.178;20.992;2022-10-31T00:26:27;99665.38;;;12.41;76.43
56821;BME280;42702;50.178;20.992;2022-10-31T00:28:57;99668.35;;;12.39;76.55
56821;BME280;42702;50.178;20.992;2022-10-31T00:31:27;99661.40;;;12.34;76.86
56821;BME280;42702;50.178;20.992;2022-10-31T00:33:57;99664.40;;;12.31;76.64
56821;BME280;42702;50.178;20.992;2022-10-31T00:36:26;99666.86;;;12.27;76.80
56821;BME280;42702;50.178;20.992;2022-10-31T00:38:55;99669.85;;;12.24;77.02
56821;BME280;42702;50.178;20.992;2022-10-31T00:41:24;99670.21;;;12.23;76.90
56821;BME280;42702;50.178;20.992;2022-10-31T00:43:52;99670.17;;;12.26;76.85
56821;BME280;42702;50.178;20.992;2022-10-31T00:46:20;99672.11;;;12.27;77.01
56821;BME280;42702;50.178;20.992;2022-10-31T00:48:51;99672.12;;;12.25;77.04
56821;BME280;42702;50.178;20.992;2022-10-31T00:51:19;99670.55;;;12.25;77.06
56821;BME280;42702;50.178;20.992;2022-10-31T00:53:48;99668.27;;;12.27;77.18
56821;BME280;42702;50.178;20.992;2022-10-31T00:56:16;99670.00;;;12.28;77.06
56821;BME280;42702;50.178;20.992;2022-10-31T00:58:44;99669.83;;;12.27;76.81
56821;BME280;42702;50.178;20.992;2022-10-31T01:01:12;99666.14;;;12.31;76.67
56821;BME280;42702;50.178;20.992;2022-10-31T01:03:40;99668.61;;;12.28;76.77
56821;BME280;42702;50.178;20.992;2022-10-31T01:06:13;99673.17;;;12.25;77.00
56821;BME280;42702;50.178;20.992;2022-10-31T01:08:42;99673.00;;;12.24;76.98
56821;BME280;42702;50.178;20.992;2022-10-31T01:11:16;99675.61;;;12.24;77.01
56821;BME280;42702;50.178;20.992;2022-10-31T01:13:46;99670.73;;;12.23;77.02
56821;BME280;42702;50.178;20.992;2022-10-31T01:16:17;99676.50;;;12.22;76.83
56821;BME280;42702;50.178;20.992;2022-10-31T01:18:46;99674.92;;;12.23;76.62
56821;BME280;42702;50.178;20.992;2022-10-31T01:23:44;99679.84;;;12.20;76.82
56821;BME280;42702;50.178;20.992;2022-10-31T01:26:23;99675.83;;;12.16;76.73
56821;BME280;42702;50.178;20.992;2022-10-31T01:29:00;99669.39;;;12.13;76.90
56821;BME280;42702;50.178;20.992;2022-10-31T01:31:35;99670.46;;;12.10;76.94
56821;BME280;42702;50.178;20.992;2022-10-31T01:34:04;99665.56;;;12.10;76.73
56821;BME280;42702;50.178;20.992;2022-10-31T01:36:35;99667.48;;;12.13;76.80
56821;BME280;42702;50.178;20.992;2022-10-31T01:39:06;99668.17;;;12.12;76.76
56821;BME280;42702;50.178;20.992;2022-10-31T01:41:38;99669.05;;;12.11;76.77
56821;BME280;42702;50.178;20.992;2022-10-31T01:47:11;99666.43;;;12.11;76.79
56821;BME280;42702;50.178;20.992;2022-10-31T01:52:19;99666.64;;;12.06;76.85
56821;BME280;42702;50.178;20.992;2022-10-31T01:57:31;99664.36;;;12.03;76.97
56821;BME280;42702;50.178;20.992;2022-10-31T02:00:04;99669.28;;;12.02;76.87
56821;BME280;42702;50.178;20.992;2022-10-31T02:02:40;99668.24;;;12.01;77.13
56821;BME280;42702;50.178;20.992;2022-10-31T02:05:14;99667.37;;;11.98;77.28
56821;BME280;42702;50.178;20.992;2022-10-31T02:10:35;99667.03;;;11.97;76.94
56821;BME280;42702;50.178;20.992;2022-10-31T02:13:06;99673.48;;;11.99;76.90
56821;BME280;42702;50.178;20.992;2022-10-31T02:15:42;99671.39;;;11.97;76.94
56821;BME280;42702;50.178;20.992;2022-10-31T02:18:12;99673.86;;;11.92;77.17
56821;BME280;42702;50.178;20.992;2022-10-31T02:29:01;99674.08;;;11.77;77.24
56821;BME280;42702;50.178;20.992;2022-10-31T02:39:56;99674.95;;;11.77;77.08
56821;BME280;42702;50.178;20.992;2022-10-31T02:48:23;99673.89;;;11.79;76.81
56821;BME280;42702;50.178;20.992;2022-10-31T02:50:57;99679.14;;;11.77;76.94
56821;BME280;42702;50.178;20.992;2022-10-31T02:53:26;99675.46;;;11.76;76.91
56821;BME280;42702;50.178;20.992;2022-10-31T02:56:17;99674.09;;;11.73;76.99
56821;BME280;42702;50.178;20.992;2022-10-31T02:58:50;99674.98;;;11.70;76.96
56821;BME280;42702;50.178;20.992;2022-10-31T03:01:39;99682.86;;;11.67;77.11
56821;BME280;42702;50.178;20.992;2022-10-31T03:07:51;99681.96;;;11.69;76.91
56821;BME280;42702;50.178;20.992;2022-10-31T03:10:47;99681.81;;;11.67;76.95
56821;BME280;42702;50.178;20.992;2022-10-31T03:13:34;99685.30;;;11.66;77.07
56821;BME280;42702;50.178;20.992;2022-10-31T03:18:50;99685.67;;;11.56;76.88
56821;BME280;42702;50.178;20.992;2022-10-31T03:24:00;99687.95;;;11.56;76.90
56821;BME280;42702;50.178;20.992;2022-10-31T03:26:30;99691.95;;;11.56;77.14
56821;BME280;42702;50.178;20.992;2022-10-31T03:29:05;99694.41;;;11.55;77.12
56821;BME280;42702;50.178;20.992;2022-10-31T03:31:40;99700.70;;;11.55;77.14
56821;BME280;42702;50.178;20.992;2022-10-31T03:34:12;99698.77;;;11.57;77.15
56821;BME280;42702;50.178;20.992;2022-10-31T03:36:41;99702.09;;;11.57;77.00
56821;BME280;42702;50.178;20.992;2022-10-31T03:39:13;99703.83;;;11.56;76.94
56821;BME280;42702;50.178;20.992;2022-10-31T03:41:48;99705.05;;;11.59;76.69
56821;BME280;42702;50.178;20.992;2022-10-31T03:44:19;99706.98;;;11.58;76.65
56821;BME280;42702;50.178;20.992;2022-10-31T03:46:56;99708.55;;;11.56;76.78
56821;BME280;42702;50.178;20.992;2022-10-31T03:49:25;99707.86;;;11.53;76.53
56821;BME280;42702;50.178;20.992;2022-10-31T03:52:16;99709.80;;;11.51;76.58
56821;BME280;42702;50.178;20.992;2022-10-31T03:54:54;99713.45;;;11.48;76.76
56821;BME280;42702;50.178;20.992;2022-10-31T03:57:31;99715.02;;;11.46;76.72
56821;BME280;42702;50.178;20.992;2022-10-31T04:00:07;99716.59;;;11.47;76.63
56821;BME280;42702;50.178;20.992;2022-10-31T04:03:09;99717.29;;;11.50;76.45
56821;BME280;42702;50.178;20.992;2022-10-31T04:05:43;99718.36;;;11.45;76.59
56821;BME280;42702;50.178;20.992;2022-10-31T04:08:17;99718.17;;;11.44;76.67
56821;BME280;42702;50.178;20.992;2022-10-31T04:10:49;99720.45;;;11.44;76.76
56821;BME280;42702;50.178;20.992;2022-10-31T04:13:23;99715.74;;;11.42;76.80
56821;BME280;42702;50.178;20.992;2022-10-31T04:16:02;99710.52;;;11.41;76.62
56821;BME280;42702;50.178;20.992;2022-10-31T04:18:30;99711.38;;;11.45;76.51
56821;BME280;42702;50.178;20.992;2022-10-31T04:21:06;99707.89;;;11.44;76.51
56821;BME280;42702;50.178;20.992;2022-10-31T04:23:36;99711.04;;;11.41;76.77
56821;BME280;42702;50.178;20.992;2022-10-31T04:26:11;99705.80;;;11.39;76.56
56821;BME280;42702;50.178;20.992;2022-10-31T04:28:39;99709.48;;;11.35;76.61
56821;BME280;42702;50.178;20.992;2022-10-31T04:31:10;99709.30;;;11.34;76.74
56821;BME280;42702;50.178;20.992;2022-10-31T04:33:38;99707.39;;;11.33;76.69
56821;BME280;42702;50.178;20.992;2022-10-31T04:36:07;99711.91;;;11.34;76.53
56821;BME280;42702;50.178;20.992;2022-10-31T04:38:35;99706.86;;;11.34;76.44
56821;BME280;42702;50.178;20.992;2022-10-31T04:41:10;99705.81;;;11.29;76.59
56821;BME280;42702;50.178;20.992;2022-10-31T04:43:52;99711.40;;;11.25;76.75
56821;BME280;42702;50.178;20.992;2022-10-31T04:46:21;99706.88;;;11.22;76.76
56821;BME280;42702;50.178;20.992;2022-10-31T04:48:49;99706.88;;;11.18;76.68
56821;BME280;42702;50.178;20.992;2022-10-31T04:51:17;99709.15;;;11.17;76.65
56821;BME280;42702;50.178;20.992;2022-10-31T04:53:45;99710.55;;;11.20;76.52
56821;BME280;42702;50.178;20.992;2022-10-31T04:56:32;99710.90;;;11.19;76.30
56821;BME280;42702;50.178;20.992;2022-10-31T04:59:04;99708.63;;;11.15;76.49
56821;BME280;42702;50.178;20.992;2022-10-31T05:01:45;99711.78;;;11.13;76.58
56821;BME280;42702;50.178;20.992;2022-10-31T05:04:13;99711.77;;;11.12;76.54
56821;BME280;42702;50.178;20.992;2022-10-31T05:06:42;99715.27;;;11.11;76.53
56821;BME280;42702;50.178;20.992;2022-10-31T05:09:10;99711.60;;;11.07;76.48
56821;BME280;42702;50.178;20.992;2022-10-31T05:11:38;99715.78;;;11.04;76.69
56821;BME280;42702;50.178;20.992;2022-10-31T05:14:23;99716.83;;;11.10;76.52
56821;BME280;42702;50.178;20.992;2022-10-31T05:17:12;99723.83;;;11.07;76.84
56821;BME280;42702;50.178;20.992;2022-10-31T05:20:10;99730.97;;;11.04;76.95
56821;BME280;42702;50.178;20.992;2022-10-31T05:22:59;99735.85;;;11.04;77.03
56821;BME280;42702;50.178;20.992;2022-10-31T05:25:28;99738.82;;;11.03;77.02
56821;BME280;42702;50.178;20.992;2022-10-31T05:27:57;99742.13;;;11.02;77.18
56821;BME280;42702;50.178;20.992;2022-10-31T05:30:28;99743.88;;;11.08;76.89
56821;BME280;42702;50.178;20.992;2022-10-31T05:32:58;99744.05;;;11.10;76.79
56821;BME280;42702;50.178;20.992;2022-10-31T05:35:45;99742.82;;;11.08;76.83
56821;BME280;42702;50.178;20.992;2022-10-31T05:38:22;99741.60;;;11.06;76.74
56821;BME280;42702;50.178;20.992;2022-10-31T05:40:54;99739.50;;;11.04;76.97
56821;BME280;42702;50.178;20.992;2022-10-31T05:43:25;99743.54;;;11.01;77.00
56821;BME280;42702;50.178;20.992;2022-10-31T05:45:55;99739.52;;;10.95;77.11
56821;BME280;42702;50.178;20.992;2022-10-31T05:48:42;99741.61;;;10.91;77.18
56821;BME280;42702;50.178;20.992;2022-10-31T05:51:28;99748.93;;;10.92;77.08
56821;BME280;42702;50.178;20.992;2022-10-31T05:53:56;99750.49;;;10.88;76.91
56821;BME280;42702;50.178;20.992;2022-10-31T05:56:25;99752.58;;;10.82;77.36
56821;BME280;42702;50.178;20.992;2022-10-31T05:58:53;99757.46;;;10.82;77.55
56821;BME280;42702;50.178;20.992;2022-10-31T06:01:21;99759.55;;;10.83;77.58
56821;BME280;42702;50.178;20.992;2022-10-31T06:03:50;99763.05;;;10.81;77.65
56821;BME280;42702;50.178;20.992;2022-10-31T06:06:20;99760.61;;;10.84;77.54
56821;BME280;42702;50.178;20.992;2022-10-31T06:08:48;99761.31;;;10.92;77.51
56821;BME280;42702;50.178;20.992;2022-10-31T06:11:20;99766.02;;;10.97;77.41
56821;BME280;42702;50.178;20.992;2022-10-31T06:14:04;99770.21;;;10.99;77.38
56821;BME280;42702;50.178;20.992;2022-10-31T06:16:43;99773.17;;;11.01;77.17
56821;BME280;42702;50.178;20.992;2022-10-31T06:19:34;99771.08;;;11.02;77.23
56821;BME280;42702;50.178;20.992;2022-10-31T06:22:02;99774.58;;;11.04;77.27
56821;BME280;42702;50.178;20.992;2022-10-31T06:24:33;99778.06;;;11.05;77.43
56821;BME280;42702;50.178;20.992;2022-10-31T06:27:05;99779.98;;;11.10;77.20
56821;BME280;42702;50.178;20.992;2022-10-31T06:29:33;99782.61;;;11.14;77.30
56821;BME280;42702;50.178;20.992;2022-10-31T06:32:05;99782.61;;;11.17;77.35
56821;BME280;42702;50.178;20.992;2022-10-31T06:34:38;99785.57;;;11.22;77.33
56821;BME280;42702;50.178;20.992;2022-10-31T06:37:08;99790.28;;;11.26;77.26
56821;BME280;42702;50.178;20.992;2022-10-31T06:39:38;99791.50;;;11.25;77.16
56821;BME280;42702;50.178;20.992;2022-10-31T06:42:08;99795.16;;;11.28;77.18
56821;BME280;42702;50.178;20.992;2022-10-31T06:44:37;99797.42;;;11.36;77.05
56821;BME280;42702;50.178;20.992;2022-10-31T06:47:50;99800.91;;;11.40;77.00
56821;BME280;42702;50.178;20.992;2022-10-31T06:50:45;99802.48;;;11.44;77.06
56821;BME280;42702;50.178;20.992;2022-10-31T06:53:14;99803.02;;;11.48;77.23
56821;BME280;42702;50.178;20.992;2022-10-31T06:55:42;99801.42;;;11.52;77.19
56821;BME280;42702;50.178;20.992;2022-10-31T06:58:11;99800.90;;;11.55;77.15
56821;BME280;42702;50.178;20.992;2022-10-31T07:00:39;99799.67;;;11.58;77.06
56821;BME280;42702;50.178;20.992;2022-10-31T07:03:13;99802.63;;;11.61;76.94
56821;BME280;42702;50.178;20.992;2022-10-31T07:05:42;99802.28;;;11.64;77.12
56821;BME280;42702;50.178;20.992;2022-10-31T07:08:12;99806.99;;;11.65;77.26
56821;BME280;42702;50.178;20.992;2022-10-31T07:10:42;99807.88;;;11.65;77.47
56821;BME280;42702;50.178;20.992;2022-10-31T07:13:13;99814.50;;;11.68;77.47
56821;BME280;42702;50.178;20.992;2022-10-31T07:15:46;99816.93;;;11.73;77.36
56821;BME280;42702;50.178;20.992;2022-10-31T07:18:15;99820.07;;;11.75;77.55
56821;BME280;42702;50.178;20.992;2022-10-31T07:20:43;99820.23;;;11.80;77.60
56821;BME280;42702;50.178;20.992;2022-10-31T07:23:12;99817.62;;;11.82;77.42
56821;BME280;42702;50.178;20.992;2022-10-31T07:25:42;99814.63;;;11.86;77.60
56821;BME280;42702;50.178;20.992;2022-10-31T07:28:16;99813.08;;;11.96;77.94
56821;BME280;42702;50.178;20.992;2022-10-31T07:30:50;99814.64;;;12.01;77.80
56821;BME280;42702;50.178;20.992;2022-10-31T07:33:20;99818.28;;;12.06;77.97
56821;BME280;42702;50.178;20.992;2022-10-31T07:36:14;99822.80;;;12.14;77.91
56821;BME280;42702;50.178;20.992;2022-10-31T07:38:44;99826.09;;;12.25;77.64
56821;BME280;42702;50.178;20.992;2022-10-31T07:41:13;99821.15;;;12.32;77.79
56821;BME280;42702;50.178;20.992;2022-10-31T07:43:43;99820.79;;;12.39;78.02
56821;BME280;42702;50.178;20.992;2022-10-31T07:46:18;99823.19;;;12.47;78.27
56821;BME280;42702;50.178;20.992;2022-10-31T07:49:04;99820.90;;;12.52;78.21
56821;BME280;42702;50.178;20.992;2022-10-31T07:51:51;99825.94;;;12.57;78.05
56821;BME280;42702;50.178;20.992;2022-10-31T07:54:38;99822.42;;;12.64;77.95
56821;BME280;42702;50.178;20.992;2022-10-31T07:57:09;99820.61;;;12.72;77.76
56821;BME280;42702;50.178;20.992;2022-10-31T07:59:39;99817.80;;;12.75;77.86
56821;BME280;42702;50.178;20.992;2022-10-31T08:02:08;99817.24;;;12.80;77.83
56821;BME280;42702;50.178;20.992;2022-10-31T08:04:49;99816.52;;;12.85;77.70
56821;BME280;42702;50.178;20.992;2022-10-31T08:07:29;99821.57;;;12.89;77.55
56821;BME280;42702;50.178;20.992;2022-10-31T08:10:00;99822.40;;;12.94;77.62
56821;BME280;42702;50.178;20.992;2022-10-31T08:12:30;99825.00;;;12.98;77.45
56821;BME280;42702;50.178;20.992;2022-10-31T08:14:59;99824.77;;;13.07;77.33
56821;BME280;42702;50.178;20.992;2022-10-31T08:17:28;99825.23;;;13.15;77.27
56821;BME280;42702;50.178;20.992;2022-10-31T08:19:59;99824.84;;;13.21;77.43
56821;BME280;42702;50.178;20.992;2022-10-31T08:22:31;99825.31;;;13.28;77.11
56821;BME280;42702;50.178;20.992;2022-10-31T08:24:59;99828.79;;;13.34;77.39
56821;BME280;42702;50.178;20.992;2022-10-31T08:27:28;99826.12;;;13.42;77.22
56821;BME280;42702;50.178;20.992;2022-10-31T08:29:58;99825.67;;;13.51;77.19
56821;BME280;42702;50.178;20.992;2022-10-31T08:32:26;99826.83;;;13.59;76.83
56821;BME280;42702;50.178;20.992;2022-10-31T08:34:57;99824.11;;;13.70;76.50
56821;BME280;42702;50.178;20.992;2022-10-31T08:37:29;99823.35;;;13.74;76.31
56821;BME280;42702;50.178;20.992;2022-10-31T08:39:57;99820.88;;;13.77;76.58
56821;BME280;42702;50.178;20.992;2022-10-31T08:42:25;99822.19;;;13.85;76.49
56821;BME280;42702;50.178;20.992;2022-10-31T08:44:53;99821.77;;;13.93;76.43
56821;BME280;42702;50.178;20.992;2022-10-31T08:47:22;99820.63;;;14.01;76.14
56821;BME280;42702;50.178;20.992;2022-10-31T08:49:50;99821.58;;;14.09;76.08
56821;BME280;42702;50.178;20.992;2022-10-31T08:52:18;99824.29;;;14.18;75.87
56821;BME280;42702;50.178;20.992;2022-10-31T08:54:48;99820.80;;;14.31;75.68
56821;BME280;42702;50.178;20.992;2022-10-31T08:57:39;99822.44;;;14.41;75.72
56821;BME280;42702;50.178;20.992;2022-10-31T09:00:08;99826.35;;;14.50;75.66
56821;BME280;42702;50.178;20.992;2022-10-31T09:02:42;99824.37;;;14.54;74.84
56821;BME280;42702;50.178;20.992;2022-10-31T09:05:10;99823.30;;;14.55;75.14
56821;BME280;42702;50.178;20.992;2022-10-31T09:07:38;99825.38;;;14.59;75.21
56821;BME280;42702;50.178;20.992;2022-10-31T09:10:07;99827.41;;;14.66;75.11
56821;BME280;42702;50.178;20.992;2022-10-31T09:12:36;99825.02;;;14.74;75.08
56821;BME280;42702;50.178;20.992;2022-10-31T09:15:23;99826.00;;;14.91;74.90
56821;BME280;42702;50.178;20.992;2022-10-31T09:18:17;99828.89;;;14.97;74.39
56821;BME280;42702;50.178;20.992;2022-10-31T09:23:41;99826.55;;;15.13;74.38
56821;BME280;42702;50.178;20.992;2022-10-31T09:26:09;99824.09;;;15.24;74.35
56821;BME280;42702;50.178;20.992;2022-10-31T09:28:41;99823.55;;;15.35;74.52
56821;BME280;42702;50.178;20.992;2022-10-31T09:31:12;99826.09;;;15.42;74.04
56821;BME280;42702;50.178;20.992;2022-10-31T09:33:49;99829.88;;;15.46;74.33
56821;BME280;42702;50.178;20.992;2022-10-31T09:36:43;99832.16;;;15.56;73.93
56821;BME280;42702;50.178;20.992;2022-10-31T09:39:14;99832.58;;;15.64;73.68
56821;BME280;42702;50.178;20.992;2022-10-31T09:46:01;99827.52;;;15.71;73.79
56821;BME280;42702;50.178;20.992;2022-10-31T09:48:07;99828.05;;;15.83;73.87
56821;BME280;42702;50.178;20.992;2022-10-31T09:50:42;99830.48;;;15.93;73.97
56821;BME280;42702;50.178;20.992;2022-10-31T09:53:32;99832.44;;;16.02;73.34
56821;BME280;42702;50.178;20.992;2022-10-31T09:56:07;99834.28;;;16.06;73.51
56821;BME280;42702;50.178;20.992;2022-10-31T09:58:57;99831.39;;;16.11;73.25
56821;BME280;42702;50.178;20.992;2022-10-31T10:06:59;99833.93;;;16.33;72.52
56821;BME280;42702;50.178;20.992;2022-10-31T10:09:45;99835.36;;;16.40;72.79
56821;BME280;42702;50.178;20.992;2022-10-31T10:12:41;99837.11;;;16.50;72.32
56821;BME280;42702;50.178;20.992;2022-10-31T10:21:31;99832.19;;;16.74;72.17
56821;BME280;42702;50.178;20.992;2022-10-31T10:29:37;99831.04;;;16.95;71.98
56821;BME280;42702;50.178;20.992;2022-10-31T10:32:13;99830.16;;;17.03;71.72
56821;BME280;42702;50.178;20.992;2022-10-31T10:34:50;99832.23;;;17.12;71.17
56821;BME280;42702;50.178;20.992;2022-10-31T10:37:36;99834.44;;;17.16;70.83
56821;BME280;42702;50.178;20.992;2022-10-31T10:40:27;99832.92;;;17.14;70.58
56821;BME280;42702;50.178;20.992;2022-10-31T10:46:16;99829.89;;;17.21;70.65
56821;BME280;42702;50.178;20.992;2022-10-31T11:00:23;99827.56;;;17.38;70.38
56821;BME280;42702;50.178;20.992;2022-10-31T11:02:52;99824.66;;;17.41;70.48
56821;BME280;42702;50.178;20.992;2022-10-31T11:07:52;99821.24;;;17.51;70.33
56821;BME280;42702;50.178;20.992;2022-10-31T11:10:21;99817.69;;;17.52;70.25
56821;BME280;42702;50.178;20.992;2022-10-31T11:13:03;99817.30;;;17.54;70.04
56821;BME280;42702;50.178;20.992;2022-10-31T11:15:36;99812.59;;;17.52;69.81
56821;BME280;42702;50.178;20.992;2022-10-31T11:18:05;99809.30;;;17.49;69.50
56821;BME280;42702;50.178;20.992;2022-10-31T11:20:40;99808.45;;;17.47;70.00
56821;BME280;42702;50.178;20.992;2022-10-31T11:23:19;99805.88;;;17.45;69.40
56821;BME280;42702;50.178;20.992;2022-10-31T11:25:59;99805.07;;;17.42;69.97
56821;BME280;42702;50.178;20.992;2022-10-31T11:28:31;99806.84;;;17.43;70.03
56821;BME280;42702;50.178;20.992;2022-10-31T11:31:07;99804.92;;;17.41;69.92
56821;BME280;42702;50.178;20.992;2022-10-31T11:33:46;99802.51;;;17.39;69.91
56821;BME280;42702;50.178;20.992;2022-10-31T11:36:27;99802.32;;;17.40;69.72
56821;BME280;42702;50.178;20.992;2022-10-31T11:38:59;99798.86;;;17.44;69.83
56821;BME280;42702;50.178;20.992;2022-10-31T11:41:35;99800.09;;;17.44;69.96
56821;BME280;42702;50.178;20.992;2022-10-31T11:44:16;99802.91;;;17.44;69.95
56821;BME280;42702;50.178;20.992;2022-10-31T11:46:54;99806.08;;;17.44;69.93
56821;BME280;42702;50.178;20.992;2022-10-31T11:49:33;99807.45;;;17.45;69.94
56821;BME280;42702;50.178;20.992;2022-10-31T11:57:46;99796.17;;;17.45;69.63
56821;BME280;42702;50.178;20.992;2022-10-31T12:00:24;99794.11;;;17.44;69.46
56821;BME280;42702;50.178;20.992;2022-10-31T12:06:18;99795.19;;;17.43;69.64
56821;BME280;42702;50.178;20.992;2022-10-31T12:08:48;99792.86;;;17.51;69.48
56821;BME280;42702;50.178;20.992;2022-10-31T12:11:42;99791.89;;;17.55;69.62
56821;BME280;42702;50.178;20.992;2022-10-31T12:17:24;99788.48;;;17.57;69.69
56821;BME280;42702;50.178;20.992;2022-10-31T12:20:17;99790.76;;;17.57;69.63
56821;BME280;42702;50.178;20.992;2022-10-31T12:45:34;99772.67;;;17.67;69.14
56821;BME280;42702;50.178;20.992;2022-10-31T12:50:55;99771.52;;;17.72;69.36
56821;BME280;42702;50.178;20.992;2022-10-31T13:04:59;99770.06;;;17.73;68.95
56821;BME280;42702;50.178;20.992;2022-10-31T13:07:54;99767.79;;;17.73;68.73
56821;BME280;42702;50.178;20.992;2022-10-31T13:13:10;99770.16;;;17.70;68.36
56821;BME280;42702;50.178;20.992;2022-10-31T13:15:50;99770.85;;;17.70;68.47
56821;BME280;42702;50.178;20.992;2022-10-31T13:18:27;99769.31;;;17.76;68.21
56821;BME280;42702;50.178;20.992;2022-10-31T13:21:00;99770.37;;;17.76;67.94
56821;BME280;42702;50.178;20.992;2022-10-31T13:23:32;99766.66;;;17.75;68.17
56821;BME280;42702;50.178;20.992;2022-10-31T13:26:24;99765.96;;;17.75;68.09
56821;BME280;42702;50.178;20.992;2022-10-31T13:29:11;99764.35;;;17.76;68.07
56821;BME280;42702;50.178;20.992;2022-10-31T13:31:42;99760.84;;;17.76;68.00
56821;BME280;42702;50.178;20.992;2022-10-31T13:34:36;99764.38;;;17.75;68.22
56821;BME280;42702;50.178;20.992;2022-10-31T13:37:34;99764.40;;;17.75;68.07
56821;BME280;42702;50.178;20.992;2022-10-31T13:43:32;99772.05;;;17.72;68.53
56821;BME280;42702;50.178;20.992;2022-10-31T13:46:25;99768.59;;;17.69;68.44
56821;BME280;42702;50.178;20.992;2022-10-31T13:48:53;99769.71;;;17.67;68.48
56821;BME280;42702;50.178;20.992;2022-10-31T13:51:27;99769.22;;;17.66;68.47
56821;BME280;42702;50.178;20.992;2022-10-31T13:54:23;99770.16;;;17.70;68.15
56821;BME280;42702;50.178;20.992;2022-10-31T13:56:52;99773.17;;;17.70;68.19
56821;BME280;42702;50.178;20.992;2022-10-31T13:59:22;99775.46;;;17.70;68.46
56821;BME280;42702;50.178;20.992;2022-10-31T14:01:59;99769.64;;;17.70;68.54
56821;BME280;42702;50.178;20.992;2022-10-31T14:07:16;99771.06;;;17.69;68.47
56821;BME280;42702;50.178;20.992;2022-10-31T14:09:57;99771.98;;;17.68;68.22
56821;BME280;42702;50.178;20.992;2022-10-31T14:12:42;99773.45;;;17.65;68.29
56821;BME280;42702;50.178;20.992;2022-10-31T14:15:20;99769.63;;;17.63;68.51
56821;BME280;42702;50.178;20.992;2022-10-31T14:18:01;99772.36;;;17.60;68.74
56821;BME280;42702;50.178;20.992;2022-10-31T14:20:41;99769.62;;;17.57;69.15
56821;BME280;42702;50.178;20.992;2022-10-31T14:25:40;99768.98;;;17.55;69.28
56821;BME280;42702;50.178;20.992;2022-10-31T14:30:55;99761.25;;;17.46;69.41
56821;BME280;42702;50.178;20.992;2022-10-31T14:33:27;99758.20;;;17.43;69.67
56821;BME280;42702;50.178;20.992;2022-10-31T14:36:18;99755.30;;;17.39;69.65
56821;BME280;42702;50.178;20.992;2022-10-31T14:39:00;99759.98;;;17.35;69.85
56821;BME280;42702;50.178;20.992;2022-10-31T14:41:40;99757.83;;;17.29;69.88
56821;BME280;42702;50.178;20.992;2022-10-31T14:47:31;99755.62;;;17.12;69.94
56821;BME280;42702;50.178;20.992;2022-10-31T14:52:38;99753.07;;;17.01;70.04
56821;BME280;42702;50.178;20.992;2022-10-31T14:55:11;99750.13;;;16.99;70.04
56821;BME280;42702;50.178;20.992;2022-10-31T14:57:49;99753.05;;;16.95;70.15
56821;BME280;42702;50.178;20.992;2022-10-31T15:00:20;99751.27;;;16.88;70.30
56821;BME280;42702;50.178;20.992;2022-10-31T15:03:11;99751.20;;;16.83;70.41
56821;BME280;42702;50.178;20.992;2022-10-31T15:05:49;99752.23;;;16.76;70.47
56821;BME280;42702;50.178;20.992;2022-10-31T15:08:51;99753.27;;;16.69;70.54
56821;BME280;42702;50.178;20.992;2022-10-31T15:11:27;99750.44;;;16.62;70.78
56821;BME280;42702;50.178;20.992;2022-10-31T15:13:56;99752.32;;;16.57;70.82
56821;BME280;42702;50.178;20.992;2022-10-31T15:16:35;99753.65;;;16.52;70.90
56821;BME280;42702;50.178;20.992;2022-10-31T15:19:07;99753.73;;;16.48;70.85
56821;BME280;42702;50.178;20.992;2022-10-31T15:21:40;99754.96;;;16.41;71.08
56821;BME280;42702;50.178;20.992;2022-10-31T15:24:11;99754.29;;;16.31;71.18
56821;BME280;42702;50.178;20.992;2022-10-31T15:26:45;99754.64;;;16.23;71.26
56821;BME280;42702;50.178;20.992;2022-10-31T15:29:25;99756.23;;;16.14;71.33
56821;BME280;42702;50.178;20.992;2022-10-31T15:31:55;99756.05;;;16.06;71.52
56821;BME280;42702;50.178;20.992;2022-10-31T15:34:41;99755.14;;;15.98;71.53
56821;BME280;42702;50.178;20.992;2022-10-31T15:37:11;99753.56;;;15.90;71.67
56821;BME280;42702;50.178;20.992;2022-10-31T15:39:42;99753.02;;;15.82;71.74
56821;BME280;42702;50.178;20.992;2022-10-31T15:42:21;99757.29;;;15.79;71.74
56821;BME280;42702;50.178;20.992;2022-10-31T15:45:17;99756.31;;;15.74;71.90
56821;BME280;42702;50.178;20.992;2022-10-31T15:47:58;99756.61;;;15.66;72.09
56821;BME280;42702;50.178;20.992;2022-10-31T15:50:39;99756.92;;;15.59;72.19
56821;BME280;42702;50.178;20.992;2022-10-31T15:53:17;99762.30;;;15.53;72.21
56821;BME280;42702;50.178;20.992;2022-10-31T15:55:55;99763.89;;;15.44;72.28
56821;BME280;42702;50.178;20.992;2022-10-31T15:58:25;99760.67;;;15.35;72.45
56821;BME280;42702;50.178;20.992;2022-10-31T16:01:03;99765.16;;;15.30;72.49
56821;BME280;42702;50.178;20.992;2022-10-31T16:03:33;99765.88;;;15.29;72.33
56821;BME280;42702;50.178;20.992;2022-10-31T16:06:04;99772.83;;;15.24;72.51